Time;durP1;ratioP1;P1;durP2;ratioP2;P2;SDS_P1;SDS_P2;PMS_P1;PMS_P2;Temp;Humidity;BMP_temperature;BMP_pressure;BME280_temperature;BME280_humidity;BME280_pressure;Samples;Min_cycle;Max_cycle;Signal;HPM_P1;HPM_P2
2020/12/14 00:01:36;;;;;;;10.90;8.57;;;3.20;99.90;;;;;;5028497;28;20821;-71
2020/12/14 00:04:03;;;;;;;9.60;8.67;;;3.10;99.90;;;;;;5028904;28;20543;-70
2020/12/14 00:06:29;;;;;;;11.90;9.57;;;3.10;99.90;;;;;;5028806;28;20471;-69
2020/12/14 00:08:56;;;;;;;10.90;9.20;;;3.00;99.90;;;;;;5029102;28;20527;-70
2020/12/14 00:11:22;;;;;;;11.53;9.57;;;3.00;99.90;;;;;;5028195;28;20527;-70
2020/12/14 00:13:49;;;;;;;11.00;9.80;;;2.90;99.90;;;;;;5028676;28;21050;-71
2020/12/14 00:16:16;;;;;;;13.40;10.20;;;2.90;99.90;;;;;;5028772;28;20575;-70
2020/12/14 00:18:42;;;;;;;14.23;11.90;;;2.90;99.90;;;;;;5028100;28;20441;-70
2020/12/14 00:21:08;;;;;;;13.37;10.90;;;2.90;99.90;;;;;;5027899;28;20444;-70
2020/12/14 00:23:35;;;;;;;13.80;10.50;;;3.00;99.90;;;;;;5028742;28;20469;-70
2020/12/14 00:26:01;;;;;;;12.90;10.70;;;3.10;99.90;;;;;;5028748;28;20536;-70
2020/12/14 00:28:27;;;;;;;14.30;11.07;;;3.10;99.90;;;;;;5028736;28;20564;-70
2020/12/14 00:30:54;;;;;;;13.00;11.03;;;3.00;99.90;;;;;;5028078;28;20547;-71
2020/12/14 00:33:21;;;;;;;14.57;11.07;;;3.00;99.90;;;;;;5028377;28;20464;-70
2020/12/14 00:35:47;;;;;;;11.57;9.97;;;3.00;99.90;;;;;;5028742;28;20441;-70
2020/12/14 00:38:13;;;;;;;12.10;10.77;;;3.10;99.90;;;;;;5028674;28;20443;-70
2020/12/14 00:40:40;;;;;;;13.20;10.10;;;2.90;99.90;;;;;;5027772;28;20535;-71
2020/12/14 00:43:06;;;;;;;10.63;9.50;;;2.90;99.90;;;;;;5028309;28;20552;-71
2020/12/14 00:45:32;;;;;;;12.50;9.33;;;2.80;99.90;;;;;;5028161;28;20441;-71
2020/12/14 00:48:00;;;;;;;13.07;10.07;;;2.90;99.90;;;;;;5028177;28;20575;-70
2020/12/14 00:50:26;;;;;;;13.23;10.23;;;3.00;99.90;;;;;;5028062;28;21011;-70
2020/12/14 00:52:52;;;;;;;11.43;9.30;;;3.10;99.90;;;;;;5028527;28;20471;-70
2020/12/14 00:55:19;;;;;;;11.33;9.53;;;3.10;99.90;;;;;;5028589;28;20455;-70
2020/12/14 00:57:45;;;;;;;11.60;9.60;;;3.10;99.90;;;;;;5031580;28;20498;-71
2020/12/14 01:00:11;;;;;;;16.30;11.27;;;3.10;99.90;;;;;;5031975;28;20445;-71
2020/12/14 01:02:38;;;;;;;11.20;10.10;;;3.20;99.90;;;;;;5032237;28;20529;-71
2020/12/14 01:05:05;;;;;;;12.53;10.13;;;3.20;99.90;;;;;;5032161;28;21119;-70
2020/12/14 01:07:31;;;;;;;12.83;10.50;;;3.20;99.90;;;;;;5029307;28;20579;-70
2020/12/14 01:09:57;;;;;;;10.73;8.73;;;3.20;99.90;;;;;;5028403;28;20540;-70
2020/12/14 01:12:24;;;;;;;11.33;9.13;;;3.10;99.90;;;;;;5028390;28;20451;-70
2020/12/14 01:14:50;;;;;;;9.77;8.77;;;3.00;99.90;;;;;;5028691;28;20531;-71
2020/12/14 01:17:16;;;;;;;10.77;9.10;;;2.90;99.90;;;;;;5028274;28;20539;-70
2020/12/14 01:19:43;;;;;;;12.53;9.53;;;2.80;99.90;;;;;;5028392;28;20437;-71
2020/12/14 01:22:11;;;;;;;11.63;9.73;;;2.70;99.90;;;;;;5027807;28;20838;-71
2020/12/14 01:24:37;;;;;;;11.53;9.50;;;2.60;99.90;;;;;;5028502;28;20445;-70
2020/12/14 01:27:03;;;;;;;12.90;9.63;;;2.50;99.90;;;;;;5028387;28;20571;-71
2020/12/14 01:29:30;;;;;;;12.33;9.43;;;2.50;99.90;;;;;;5029786;28;20445;-70
2020/12/14 01:31:56;;;;;;;11.77;9.43;;;2.50;99.90;;;;;;5031902;28;20539;-70
2020/12/14 01:34:22;;;;;;;12.60;10.20;;;2.50;99.90;;;;;;5031887;28;20551;-70
2020/12/14 01:36:49;;;;;;;13.33;10.30;;;2.50;99.90;;;;;;5032845;28;20834;-70
2020/12/14 01:39:16;;;;;;;18.13;10.90;;;2.50;99.90;;;;;;5033302;28;20448;-71
2020/12/14 01:41:42;;;;;;;11.80;10.20;;;2.60;99.90;;;;;;5032566;28;20445;-70
2020/12/14 01:44:09;;;;;;;12.23;9.60;;;2.70;99.90;;;;;;5031705;28;20507;-70
2020/12/14 01:46:38;;;;;;;14.30;10.33;;;2.70;99.90;;;;;;5032064;28;20451;-69
2020/12/14 01:49:05;;;;;;;12.10;8.93;;;2.60;99.90;;;;;;5031481;28;20543;-70
2020/12/14 01:51:32;;;;;;;12.73;9.33;;;2.50;99.90;;;;;;5030632;28;20527;-70
2020/12/14 01:53:59;;;;;;;10.97;9.13;;;2.50;99.90;;;;;;5031168;28;20461;-70
2020/12/14 01:56:27;;;;;;;15.53;10.20;;;2.40;99.90;;;;;;5029795;28;20441;-70
2020/12/14 01:58:53;;;;;;;12.30;9.80;;;2.30;99.90;;;;;;5031027;28;20929;-70
2020/12/14 02:01:19;;;;;;;15.70;11.77;;;2.40;99.90;;;;;;5030563;28;20455;-70
2020/12/14 02:03:46;;;;;;;12.07;9.33;;;2.50;99.90;;;;;;5031577;28;20529;-70
2020/12/14 02:06:12;;;;;;;15.10;10.10;;;2.50;99.90;;;;;;5031124;28;20447;-70
2020/12/14 02:08:38;;;;;;;14.67;9.60;;;2.50;99.90;;;;;;5031427;28;20484;-70
2020/12/14 02:11:05;;;;;;;11.63;8.20;;;2.40;99.90;;;;;;5030728;28;20548;-70
2020/12/14 02:13:32;;;;;;;11.93;9.60;;;2.40;99.90;;;;;;5031060;28;21044;-70
2020/12/14 02:15:58;;;;;;;9.33;7.87;;;2.20;99.90;;;;;;5031137;28;20449;-69
2020/12/14 02:18:25;;;;;;;11.63;9.33;;;2.20;99.90;;;;;;5031312;28;20536;-70
2020/12/14 02:20:51;;;;;;;11.83;9.60;;;2.10;99.90;;;;;;5030155;28;20535;-70
2020/12/14 02:23:18;;;;;;;12.30;9.60;;;2.20;99.90;;;;;;5030775;28;21046;-70
2020/12/14 02:25:45;;;;;;;14.40;9.20;;;2.40;99.90;;;;;;5030575;28;20445;-70
2020/12/14 02:28:11;;;;;;;11.50;9.60;;;2.40;99.90;;;;;;5030629;28;20871;-70
2020/12/14 02:30:37;;;;;;;12.53;8.77;;;2.30;99.90;;;;;;5030254;28;20854;-70
2020/12/14 02:33:04;;;;;;;11.27;9.13;;;2.30;99.90;;;;;;5030767;28;20476;-69
2020/12/14 02:35:30;;;;;;;10.20;8.40;;;2.10;99.90;;;;;;5030884;28;20445;-70
2020/12/14 02:37:56;;;;;;;12.37;9.40;;;2.20;99.90;;;;;;5030649;28;20845;-70
2020/12/14 02:40:23;;;;;;;9.37;8.37;;;2.10;99.90;;;;;;5029228;28;20813;-70
2020/12/14 02:42:50;;;;;;;13.93;9.40;;;2.10;99.90;;;;;;5029933;28;20547;-70
2020/12/14 02:45:16;;;;;;;13.00;9.97;;;2.00;99.90;;;;;;5030725;28;20524;-70
2020/12/14 02:47:43;;;;;;;11.83;9.80;;;2.10;99.90;;;;;;5030519;28;20575;-70
2020/12/14 02:50:09;;;;;;;14.57;10.53;;;2.10;99.90;;;;;;5029765;28;20451;-70
2020/12/14 02:52:36;;;;;;;12.63;10.37;;;2.10;99.90;;;;;;5030161;28;20551;-70
2020/12/14 02:55:03;;;;;;;11.27;10.07;;;2.10;99.90;;;;;;5028708;28;20548;-70
2020/12/14 02:57:29;;;;;;;16.03;11.40;;;2.10;99.90;;;;;;5030522;28;20436;-70
2020/12/14 02:59:56;;;;;;;14.40;10.87;;;2.10;99.90;;;;;;5029989;28;20449;-70
2020/12/14 03:02:23;;;;;;;14.63;10.60;;;2.10;99.90;;;;;;5030052;28;20528;-70
2020/12/14 03:04:49;;;;;;;12.70;10.30;;;2.10;99.90;;;;;;5030732;28;20891;-70
2020/12/14 03:07:15;;;;;;;11.93;9.53;;;2.00;99.90;;;;;;5030908;28;21014;-72
2020/12/14 03:09:42;;;;;;;13.00;10.10;;;1.90;99.90;;;;;;5030624;28;20547;-71
2020/12/14 03:12:08;;;;;;;15.50;9.60;;;1.90;99.90;;;;;;5029921;28;20942;-70
2020/12/14 03:14:34;;;;;;;13.23;9.70;;;1.80;99.90;;;;;;5030508;28;20536;-70
2020/12/14 03:17:01;;;;;;;11.57;9.40;;;1.80;99.90;;;;;;5030131;28;21105;-70
2020/12/14 03:19:28;;;;;;;11.93;9.50;;;1.80;99.90;;;;;;5030118;28;20447;-71
2020/12/14 03:21:55;;;;;;;15.37;10.77;;;1.70;99.90;;;;;;5029236;28;20441;-71
2020/12/14 03:24:21;;;;;;;15.23;11.63;;;1.80;99.90;;;;;;5029510;28;20564;-71
2020/12/14 03:26:49;;;;;;;15.70;11.03;;;1.90;99.90;;;;;;5029547;28;20441;-71
2020/12/14 03:29:15;;;;;;;15.20;11.37;;;1.90;99.90;;;;;;5029776;28;20463;-70
2020/12/14 03:31:42;;;;;;;19.20;12.63;;;2.00;99.90;;;;;;5029011;28;20445;-70
2020/12/14 03:34:09;;;;;;;21.20;13.30;;;2.10;99.90;;;;;;5029534;28;20456;-70
2020/12/14 03:36:35;;;;;;;19.47;13.87;;;2.20;99.90;;;;;;5029479;28;20456;-70
2020/12/14 03:39:02;;;;;;;20.93;14.30;;;2.40;99.90;;;;;;5029372;28;20437;-70
2020/12/14 03:41:28;;;;;;;20.27;15.50;;;2.50;99.90;;;;;;5029030;28;20451;-70
2020/12/14 03:43:54;;;;;;;20.10;15.47;;;2.60;99.90;;;;;;5029507;28;20583;-69
2020/12/14 03:46:22;;;;;;;23.73;16.30;;;2.50;99.90;;;;;;5029332;28;20829;-70
2020/12/14 03:48:49;;;;;;;20.93;15.57;;;2.50;99.90;;;;;;5029174;28;20485;-70
2020/12/14 03:51:21;;;;;;;18.13;13.70;;;2.40;99.90;;;;;;5028350;28;20945;-70
2020/12/14 03:53:47;;;;;;;20.57;14.40;;;2.40;99.90;;;;;;5028196;28;20465;-70
2020/12/14 03:56:14;;;;;;;19.50;13.90;;;2.30;99.90;;;;;;5028727;28;20959;-70
2020/12/14 03:58:40;;;;;;;23.83;14.23;;;2.10;99.90;;;;;;5027899;28;20544;-70
2020/12/14 04:01:06;;;;;;;19.37;14.37;;;2.00;99.90;;;;;;5028282;28;20447;-70
2020/12/14 04:03:33;;;;;;;18.90;13.10;;;1.90;99.90;;;;;;5028858;28;20468;-70
2020/12/14 04:05:59;;;;;;;19.17;14.03;;;1.90;99.90;;;;;;5028832;28;20447;-70
2020/12/14 04:08:26;;;;;;;19.27;13.77;;;1.80;99.90;;;;;;5029222;28;20568;-70
2020/12/14 04:10:53;;;;;;;16.93;13.17;;;1.80;99.90;;;;;;5028333;28;20988;-70
2020/12/14 04:13:19;;;;;;;17.50;13.60;;;1.90;99.90;;;;;;5028802;28;20883;-70
2020/12/14 04:15:45;;;;;;;18.03;13.57;;;1.80;99.90;;;;;;5028940;28;20491;-70
2020/12/14 04:18:12;;;;;;;15.57;11.53;;;1.90;99.90;;;;;;5028705;28;20452;-70
2020/12/14 04:20:38;;;;;;;18.37;12.87;;;1.80;99.90;;;;;;5027973;28;20884;-70
2020/12/14 04:23:04;;;;;;;17.10;11.67;;;1.70;99.90;;;;;;5028818;28;20924;-70
2020/12/14 04:25:32;;;;;;;19.23;14.27;;;1.70;99.90;;;;;;5028828;28;20519;-70
2020/12/14 04:27:59;;;;;;;20.10;15.03;;;1.70;99.90;;;;;;5028568;28;20577;-70
2020/12/14 04:30:27;;;;;;;23.07;14.17;;;1.80;99.90;;;;;;5028272;28;20471;-71
2020/12/14 04:32:54;;;;;;;18.23;14.77;;;1.80;99.90;;;;;;5028467;28;20460;-71
2020/12/14 04:35:20;;;;;;;20.03;13.67;;;1.70;99.90;;;;;;5028736;28;20463;-70
2020/12/14 04:37:48;;;;;;;14.53;11.10;;;1.70;99.90;;;;;;5028307;28;20532;-71
2020/12/14 04:40:15;;;;;;;16.77;12.33;;;1.70;99.90;;;;;;5027605;28;20453;-70
2020/12/14 04:42:44;;;;;;;17.33;11.90;;;1.60;99.90;;;;;;5028306;28;20473;-70
2020/12/14 04:45:12;;;;;;;18.07;13.30;;;1.50;99.90;;;;;;5028516;28;20499;-70
2020/12/14 04:47:39;;;;;;;17.20;12.50;;;1.60;99.90;;;;;;5028383;28;20476;-70
2020/12/14 04:50:06;;;;;;;20.70;11.73;;;1.50;99.90;;;;;;5028046;28;20811;-71
2020/12/14 04:52:35;;;;;;;16.87;12.77;;;1.50;99.90;;;;;;5028257;28;20456;-70
2020/12/14 04:55:03;;;;;;;15.67;11.47;;;1.50;99.90;;;;;;5028280;28;20951;-70
2020/12/14 04:57:31;;;;;;;16.70;12.97;;;1.40;99.90;;;;;;5028383;28;20437;-70
2020/12/14 04:59:59;;;;;;;16.40;12.30;;;1.30;99.90;;;;;;5027695;28;20873;-70
2020/12/14 05:02:26;;;;;;;17.60;12.50;;;1.40;99.90;;;;;;5028012;28;20448;-70
2020/12/14 05:04:52;;;;;;;17.70;11.00;;;1.30;99.90;;;;;;5031002;28;20440;-71
2020/12/14 05:07:19;;;;;;;14.47;11.27;;;1.30;99.90;;;;;;5032140;28;20619;-71
2020/12/14 05:09:45;;;;;;;18.58;13.70;;;1.40;99.90;;;;;;5031824;28;20433;-72
2020/12/14 05:12:19;;;;;;;19.80;13.03;;;1.30;99.90;;;;;;5031385;28;20214;-70
2020/12/14 05:14:45;;;;;;;18.13;12.30;;;1.40;99.90;;;;;;5032178;28;20445;-70
2020/12/14 05:17:22;;;;;;;18.07;12.80;;;1.40;99.90;;;;;;5032249;28;20448;-70
2020/12/14 05:19:49;;;;;;;15.13;11.57;;;1.30;99.90;;;;;;5032398;28;20440;-70
2020/12/14 05:22:17;;;;;;;18.50;11.00;;;1.40;99.90;;;;;;5031341;28;20472;-70
2020/12/14 05:24:49;;;;;;;15.77;11.77;;;1.30;99.90;;;;;;5032102;28;20445;-71
2020/12/14 05:27:32;;;;;;;14.37;10.50;;;1.30;99.90;;;;;;5031714;28;20966;-71
2020/12/14 05:29:59;;;;;;;15.57;11.17;;;1.20;99.90;;;;;;5031406;28;20459;-70
2020/12/14 05:32:27;;;;;;;17.63;12.83;;;1.20;99.90;;;;;;5031869;28;20447;-71
2020/12/14 05:34:53;;;;;;;18.73;11.50;;;1.20;99.90;;;;;;5031902;28;20440;-71
2020/12/14 05:37:20;;;;;;;18.33;12.43;;;1.30;99.90;;;;;;5031635;28;20551;-72
2020/12/14 05:39:46;;;;;;;17.63;11.10;;;1.40;99.90;;;;;;5031316;28;21050;-71
2020/12/14 05:42:14;;;;;;;16.37;11.50;;;1.30;99.90;;;;;;5030816;28;20540;-70
2020/12/14 05:44:43;;;;;;;12.97;10.50;;;1.30;99.90;;;;;;5031685;28;20445;-71
2020/12/14 05:47:27;;;;;;;16.17;11.23;;;1.30;99.90;;;;;;5031458;28;20483;-70
2020/12/14 05:49:55;;;;;;;14.40;11.27;;;1.30;99.90;;;;;;5031052;28;21040;-69
2020/12/14 05:52:23;;;;;;;15.87;10.67;;;1.40;99.90;;;;;;5030995;28;20445;-71
2020/12/14 05:54:54;;;;;;;15.10;11.90;;;1.40;99.90;;;;;;5030474;28;20447;-70
2020/12/14 05:57:28;;;;;;;13.47;11.57;;;1.50;99.90;;;;;;5031512;28;20544;-70
2020/12/14 05:59:59;;;;;;;17.87;12.93;;;1.60;99.90;;;;;;5031013;28;20467;-69
2020/12/14 06:02:26;;;;;;;15.70;10.30;;;1.60;99.90;;;;;;5032536;28;20452;-70
2020/12/14 06:04:56;;;;;;;19.90;12.60;;;1.60;99.90;;;;;;5032353;28;20970;-69
2020/12/14 06:07:25;;;;;;;19.27;12.30;;;1.70;99.90;;;;;;5032096;28;20445;-70
2020/12/14 06:10:07;;;;;;;17.50;11.50;;;1.70;99.90;;;;;;5031143;28;21026;-70
2020/12/14 06:12:36;;;;;;;14.60;11.27;;;1.70;99.90;;;;;;5029621;28;20580;-70
2020/12/14 06:15:08;;;;;;;16.07;11.43;;;1.60;99.90;;;;;;5013775;28;20446;-71
2020/12/14 06:17:36;;;;;;;12.60;9.43;;;1.50;99.90;;;;;;5011919;28;20572;-70
2020/12/14 06:20:14;;;;;;;13.43;9.67;;;1.40;99.90;;;;;;5008787;28;20450;-70
2020/12/14 06:22:45;;;;;;;15.80;10.50;;;1.40;99.90;;;;;;5011332;28;20461;-70
2020/12/14 06:25:12;;;;;;;18.33;12.50;;;1.40;99.90;;;;;;5009466;28;20437;-70
2020/12/14 06:27:38;;;;;;;18.93;12.10;;;1.40;99.90;;;;;;5009169;28;20477;-70
2020/12/14 06:30:30;;;;;;;16.90;12.10;;;1.40;99.90;;;;;;5009879;28;20561;-71
2020/12/14 06:33:01;;;;;;;18.73;11.77;;;1.30;99.90;;;;;;5011354;28;20473;-70
2020/12/14 06:35:43;;;;;;;15.93;10.77;;;1.30;99.90;;;;;;5013121;28;20533;-70
2020/12/14 06:38:09;;;;;;;17.37;11.27;;;1.30;99.90;;;;;;5016384;28;20537;-71
2020/12/14 06:41:00;;;;;;;16.73;11.23;;;1.20;99.90;;;;;;5015314;28;21020;-71
2020/12/14 06:43:33;;;;;;;13.40;9.70;;;1.20;99.90;;;;;;4990303;28;20532;-71
2020/12/14 06:46:01;;;;;;;13.73;10.20;;;1.30;99.90;;;;;;5009120;28;20541;-70
2020/12/14 06:48:38;;;;;;;13.73;9.63;;;1.30;99.90;;;;;;5009394;28;20485;-70
2020/12/14 06:51:05;;;;;;;13.13;9.73;;;1.40;99.90;;;;;;5009864;28;20442;-71
2020/12/14 06:53:40;;;;;;;11.60;9.00;;;1.40;99.90;;;;;;5010389;28;20466;-71
2020/12/14 06:56:06;;;;;;;11.70;8.33;;;1.40;99.90;;;;;;5010550;28;20533;-71
2020/12/14 06:58:35;;;;;;;13.60;10.20;;;1.40;99.90;;;;;;5010708;28;20480;-72
2020/12/14 07:01:03;;;;;;;16.00;10.90;;;1.40;99.90;;;;;;5009730;28;20544;-70
2020/12/14 07:03:37;;;;;;;13.37;10.03;;;1.50;99.90;;;;;;5010671;28;20466;-71
2020/12/14 07:06:05;;;;;;;14.03;9.23;;;1.50;99.90;;;;;;5010676;28;20885;-71
2020/12/14 07:08:38;;;;;;;13.87;10.60;;;1.40;99.90;;;;;;5010454;28;20490;-70
2020/12/14 07:11:10;;;;;;;12.20;8.67;;;1.40;99.90;;;;;;5009549;28;20450;-71
2020/12/14 07:13:36;;;;;;;11.00;8.83;;;1.50;99.90;;;;;;5010325;28;20494;-71
2020/12/14 07:16:07;;;;;;;14.90;10.00;;;1.50;99.90;;;;;;5010142;28;20461;-71
2020/12/14 07:18:34;;;;;;;18.07;11.00;;;1.50;99.90;;;;;;5009403;28;20936;-70
2020/12/14 07:21:07;;;;;;;13.17;9.60;;;1.60;99.90;;;;;;5009324;28;20511;-71
2020/12/14 07:23:35;;;;;;;13.27;10.50;;;1.70;99.90;;;;;;5021959;28;20479;-71
2020/12/14 07:26:02;;;;;;;15.77;9.83;;;1.70;99.90;;;;;;5028358;28;20941;-69
2020/12/14 07:28:35;;;;;;;11.40;9.10;;;1.70;99.90;;;;;;5028608;28;20480;-71
2020/12/14 07:31:07;;;;;;;12.53;9.30;;;1.60;99.90;;;;;;5028372;28;20836;-71
2020/12/14 07:33:34;;;;;;;12.60;9.50;;;1.60;99.90;;;;;;5028995;28;20556;-70
2020/12/14 07:36:06;;;;;;;11.57;8.77;;;1.50;99.90;;;;;;5028442;28;20540;-70
2020/12/14 07:38:33;;;;;;;13.97;10.23;;;1.60;99.90;;;;;;5028517;28;20890;-70
2020/12/14 07:41:07;;;;;;;13.70;10.40;;;1.60;99.90;;;;;;5027963;28;20635;-71
2020/12/14 07:43:42;;;;;;;12.73;9.23;;;1.60;99.90;;;;;;5028279;28;20496;-70
2020/12/14 07:46:19;;;;;;;12.93;9.30;;;1.70;99.90;;;;;;5028590;28;20812;-71
2020/12/14 07:48:55;;;;;;;13.70;9.10;;;1.80;99.90;;;;;;5028203;28;20558;-70
2020/12/14 07:51:23;;;;;;;11.50;9.03;;;1.80;99.90;;;;;;5028212;28;20939;-71
2020/12/14 07:53:50;;;;;;;13.90;9.73;;;1.90;99.90;;;;;;5028559;28;20468;-71
2020/12/14 07:56:17;;;;;;;14.50;10.23;;;1.90;99.90;;;;;;5029099;28;20833;-71
2020/12/14 07:58:48;;;;;;;13.90;9.80;;;2.00;99.90;;;;;;5029867;28;20541;-70
2020/12/14 08:01:19;;;;;;;13.67;9.53;;;2.00;99.90;;;;;;5028706;28;20563;-71
2020/12/14 08:03:46;;;;;;;13.70;10.40;;;2.10;99.90;;;;;;5029408;28;20544;-71
2020/12/14 08:06:14;;;;;;;14.57;10.07;;;2.10;99.90;;;;;;5029443;28;20481;-71
2020/12/14 08:08:46;;;;;;;14.97;10.90;;;2.20;99.90;;;;;;5029334;28;20576;-71
2020/12/14 08:11:14;;;;;;;17.60;10.50;;;2.20;99.90;;;;;;5028588;28;20527;-71
2020/12/14 08:13:43;;;;;;;16.10;10.53;;;2.40;99.90;;;;;;5027429;28;20469;-71
2020/12/14 08:16:16;;;;;;;21.23;11.50;;;2.40;99.90;;;;;;5027697;28;20452;-71
2020/12/14 08:18:44;;;;;;;16.20;11.57;;;2.50;99.90;;;;;;5028862;28;20456;-71
2020/12/14 08:21:21;;;;;;;15.20;11.17;;;2.60;99.90;;;;;;5028184;28;20488;-71
2020/12/14 08:23:48;;;;;;;16.43;11.53;;;2.70;99.90;;;;;;5028975;28;20456;-71
2020/12/14 08:26:20;;;;;;;15.73;11.20;;;2.80;99.90;;;;;;5028688;28;20455;-71
2020/12/14 08:28:47;;;;;;;18.20;11.77;;;3.00;99.90;;;;;;5028906;28;20489;-71
2020/12/14 08:31:13;;;;;;;15.20;11.40;;;3.10;99.90;;;;;;5028204;28;20521;-71
2020/12/14 08:33:50;;;;;;;12.30;9.93;;;3.30;99.90;;;;;;5028595;28;20460;-71
2020/12/14 08:36:17;;;;;;;15.83;11.60;;;3.40;99.90;;;;;;5028606;28;20532;-71
2020/12/14 08:38:44;;;;;;;14.50;10.73;;;3.50;99.90;;;;;;5028046;28;20444;-71
2020/12/14 08:41:12;;;;;;;14.80;10.30;;;3.60;99.90;;;;;;5027652;28;20514;-71
2020/12/14 08:43:40;;;;;;;13.10;10.30;;;3.70;99.90;;;;;;5028607;28;20469;-71
2020/12/14 08:46:09;;;;;;;13.07;10.10;;;3.90;99.90;;;;;;5028958;28;20484;-71
2020/12/14 08:48:45;;;;;;;13.77;10.47;;;4.00;99.90;;;;;;5028298;28;20995;-71
2020/12/14 08:51:13;;;;;;;12.03;9.73;;;4.00;99.90;;;;;;5027584;28;20448;-71
2020/12/14 08:53:41;;;;;;;12.10;9.13;;;4.00;99.90;;;;;;5028693;28;20833;-71
2020/12/14 08:56:09;;;;;;;11.20;9.77;;;4.10;99.90;;;;;;5028414;28;20447;-71
2020/12/14 08:58:53;;;;;;;13.20;9.20;;;4.20;99.90;;;;;;5028412;28;20448;-71
2020/12/14 09:01:21;;;;;;;11.67;9.67;;;4.30;99.90;;;;;;5027893;28;20448;-71
2020/12/14 09:03:53;;;;;;;12.27;8.87;;;4.40;99.90;;;;;;5028269;28;20551;-72
2020/12/14 09:06:22;;;;;;;14.17;10.23;;;4.40;99.90;;;;;;5028350;28;20453;-72
2020/12/14 09:09:06;;;;;;;13.43;10.47;;;4.50;99.90;;;;;;5028014;28;20483;-71
2020/12/14 09:11:34;;;;;;;13.43;11.13;;;4.60;99.90;;;;;;5027604;28;20539;-71
2020/12/14 09:14:03;;;;;;;14.47;10.27;;;4.60;99.90;;;;;;5028135;28;20556;-71
2020/12/14 09:16:30;;;;;;;11.20;8.53;;;4.70;99.90;;;;;;5027804;28;20457;-71
2020/12/14 09:18:56;;;;;;;15.83;10.90;;;4.80;99.90;;;;;;5028364;28;20451;-71
2020/12/14 09:21:23;;;;;;;13.10;10.20;;;4.80;99.90;;;;;;5027634;28;20530;-71
2020/12/14 09:24:13;;;;;;;12.80;9.33;;;4.80;99.90;;;;;;5028135;28;20542;-71
2020/12/14 09:26:40;;;;;;;14.83;10.07;;;4.90;99.90;;;;;;5028084;28;20444;-71
2020/12/14 09:29:07;;;;;;;11.30;9.43;;;4.90;99.90;;;;;;5028012;28;20491;-72
2020/12/14 09:31:34;;;;;;;16.23;10.70;;;5.00;99.90;;;;;;5027536;28;20563;-71
2020/12/14 09:34:00;;;;;;;21.87;10.70;;;5.10;99.90;;;;;;5028134;28;20543;-72
2020/12/14 09:36:27;;;;;;;14.00;11.00;;;5.20;99.90;;;;;;5027949;28;20520;-71
2020/12/14 09:38:54;;;;;;;11.70;9.47;;;5.30;99.90;;;;;;5028173;28;20528;-71
2020/12/14 09:41:22;;;;;;;11.83;10.33;;;5.30;99.90;;;;;;5027117;28;20444;-72
2020/12/14 09:43:48;;;;;;;10.90;9.00;;;5.40;99.90;;;;;;5027803;28;20464;-71
2020/12/14 09:46:16;;;;;;;12.53;9.80;;;5.50;99.90;;;;;;5027889;28;20540;-72
2020/12/14 09:48:42;;;;;;;11.87;10.03;;;5.60;99.90;;;;;;5027941;28;20503;-71
2020/12/14 09:51:08;;;;;;;14.53;8.70;;;5.60;99.90;;;;;;5028685;28;20525;-72
2020/12/14 09:53:35;;;;;;;10.50;8.47;;;5.70;99.90;;;;;;5031499;28;20531;-71
2020/12/14 09:56:01;;;;;;;10.87;8.07;;;5.80;99.90;;;;;;5031274;28;20523;-72
2020/12/14 09:58:29;;;;;;;9.70;8.23;;;6.00;99.90;;;;;;5031522;28;20532;-72
2020/12/14 10:00:55;;;;;;;10.98;9.80;;;6.00;99.90;;;;;;5029512;28;20445;-72
2020/12/14 10:03:22;;;;;;;8.77;7.83;;;6.20;99.90;;;;;;5031203;28;20316;-71
2020/12/14 10:05:49;;;;;;;9.73;8.17;;;6.50;99.90;;;;;;5031527;28;20834;-71
2020/12/14 10:08:16;;;;;;;8.90;7.67;;;6.70;99.90;;;;;;5031161;28;20586;-72
2020/12/14 10:10:42;;;;;;;7.80;6.40;;;6.90;99.90;;;;;;5030250;28;21019;-71
2020/12/14 10:13:09;;;;;;;10.27;8.63;;;7.10;99.90;;;;;;5031081;28;20472;-71
2020/12/14 10:15:35;;;;;;;8.23;7.17;;;7.40;99.90;;;;;;5031060;28;20549;-72
2020/12/14 10:18:02;;;;;;;8.13;6.90;;;7.70;99.90;;;;;;5030828;28;20452;-71
2020/12/14 10:20:30;;;;;;;8.63;7.13;;;8.10;99.90;;;;;;5030381;28;20496;-71
2020/12/14 10:22:56;;;;;;;7.77;6.97;;;8.30;99.90;;;;;;5030754;28;20469;-71
2020/12/14 10:25:24;;;;;;;7.90;7.07;;;8.60;99.90;;;;;;5030688;28;21026;-71
2020/12/14 10:27:51;;;;;;;8.43;7.00;;;8.80;99.90;;;;;;5030673;28;20544;-71
2020/12/14 10:30:17;;;;;;;7.73;6.30;;;8.90;99.90;;;;;;5028556;28;21088;-72
2020/12/14 10:32:44;;;;;;;8.07;6.53;;;9.00;99.90;;;;;;5030988;28;21129;-72
2020/12/14 10:35:11;;;;;;;11.03;7.40;;;9.30;99.90;;;;;;5031618;28;20433;-70
2020/12/14 10:37:38;;;;;;;8.30;6.97;;;9.50;99.90;;;;;;5036882;28;20540;-70
2020/12/14 10:40:05;;;;;;;7.70;6.13;;;9.70;99.90;;;;;;5030376;28;20440;-70
2020/12/14 10:42:32;;;;;;;7.30;6.33;;;9.80;99.90;;;;;;5030488;28;20445;-70
2020/12/14 10:44:58;;;;;;;7.57;6.40;;;9.80;99.90;;;;;;5030570;28;20444;-70
2020/12/14 10:47:25;;;;;;;8.30;5.80;;;9.80;99.90;;;;;;5030340;28;21259;-70
2020/12/14 10:49:52;;;;;;;7.03;5.90;;;9.70;99.90;;;;;;5029579;28;20796;-70
2020/12/14 10:52:18;;;;;;;8.20;5.67;;;9.80;99.90;;;;;;5029612;28;20528;-70
2020/12/14 10:54:45;;;;;;;7.53;6.37;;;9.70;99.90;;;;;;5030240;28;20540;-71
2020/12/14 10:57:12;;;;;;;6.80;5.50;;;9.70;99.90;;;;;;5029592;28;20536;-70
2020/12/14 10:59:38;;;;;;;7.60;5.90;;;9.80;99.90;;;;;;5030136;28;20444;-70
2020/12/14 11:02:04;;;;;;;6.10;5.50;;;9.80;99.90;;;;;;5029302;28;20448;-70
2020/12/14 11:04:31;;;;;;;5.63;5.03;;;9.70;99.90;;;;;;5030062;28;20460;-70
2020/12/14 11:06:58;;;;;;;8.47;5.73;;;9.60;99.90;;;;;;5030028;28;20479;-70
2020/12/14 11:09:24;;;;;;;7.67;6.03;;;9.60;99.90;;;;;;5029750;28;20491;-70
2020/12/14 11:11:51;;;;;;;5.60;4.53;;;9.60;99.90;;;;;;5029464;28;20449;-70
2020/12/14 11:14:18;;;;;;;5.77;5.20;;;9.50;99.90;;;;;;5029995;28;20491;-70
2020/12/14 11:16:45;;;;;;;5.90;5.30;;;9.50;99.90;;;;;;5029692;28;20490;-70
2020/12/14 11:19:11;;;;;;;6.70;5.27;;;9.40;99.90;;;;;;5029785;28;20448;-70
2020/12/14 11:21:38;;;;;;;7.23;6.10;;;9.30;99.90;;;;;;5029034;28;20970;-70
2020/12/14 11:24:05;;;;;;;7.07;6.00;;;9.40;99.90;;;;;;5029693;28;20556;-70
2020/12/14 11:26:31;;;;;;;6.50;5.27;;;9.50;99.90;;;;;;5029820;28;20445;-70
2020/12/14 11:28:58;;;;;;;7.60;5.23;;;9.50;99.90;;;;;;5029640;28;20477;-70
2020/12/14 11:31:25;;;;;;;6.17;5.50;;;9.60;99.90;;;;;;5029127;28;20675;-70
2020/12/14 11:33:51;;;;;;;6.40;5.80;;;9.60;99.90;;;;;;5029381;28;20471;-70
2020/12/14 11:36:23;;;;;;;7.07;6.10;;;9.70;99.90;;;;;;5029557;28;20531;-70
2020/12/14 11:38:49;;;;;;;6.67;5.97;;;9.80;99.90;;;;;;5029613;28;20441;-70
2020/12/14 11:41:15;;;;;;;7.10;5.90;;;9.80;99.90;;;;;;5028676;28;20437;-69
2020/12/14 11:43:42;;;;;;;6.00;5.07;;;9.80;99.90;;;;;;5029210;28;20457;-70
2020/12/14 11:46:09;;;;;;;6.00;5.27;;;9.90;99.90;;;;;;5029459;28;21047;-70
2020/12/14 11:48:35;;;;;;;6.10;5.33;;;9.90;99.90;;;;;;5029199;28;20574;-71
2020/12/14 11:51:02;;;;;;;6.17;5.57;;;9.90;99.90;;;;;;5028762;28;20532;-69
2020/12/14 11:53:28;;;;;;;5.83;5.20;;;9.90;99.90;;;;;;5029069;28;20461;-70
2020/12/14 11:55:54;;;;;;;10.07;5.80;;;9.90;99.90;;;;;;5029128;28;20940;-70
2020/12/14 11:58:21;;;;;;;5.97;5.30;;;10.00;99.90;;;;;;5029238;28;21161;-70
2020/12/14 12:00:47;;;;;;;6.23;5.50;;;10.10;99.90;;;;;;5028504;28;20543;-70
2020/12/14 12:03:15;;;;;;;6.57;5.77;;;10.20;99.90;;;;;;5029280;28;20474;-70
2020/12/14 12:05:41;;;;;;;8.00;6.03;;;10.20;99.90;;;;;;5029141;28;20445;-70
2020/12/14 12:08:07;;;;;;;9.73;6.60;;;10.20;99.90;;;;;;5029005;28;21156;-70
2020/12/14 12:10:34;;;;;;;7.20;6.10;;;10.20;99.90;;;;;;5028470;28;20468;-70
2020/12/14 12:13:00;;;;;;;7.37;5.80;;;10.20;99.90;;;;;;5028460;28;20473;-70
2020/12/14 12:15:27;;;;;;;7.77;6.00;;;10.30;99.90;;;;;;5028925;28;20551;-70
2020/12/14 12:17:53;;;;;;;6.37;5.57;;;10.50;99.90;;;;;;5029357;28;20556;-70
2020/12/14 12:20:21;;;;;;;7.50;5.90;;;10.80;99.90;;;;;;5029760;28;20449;-71
2020/12/14 12:22:47;;;;;;;6.50;5.90;;;10.80;99.90;;;;;;5030121;28;20557;-72
2020/12/14 12:25:14;;;;;;;9.27;6.07;;;10.80;99.90;;;;;;5029492;28;20447;-70
2020/12/14 12:27:40;;;;;;;8.10;6.30;;;10.90;99.90;;;;;;5028676;28;20527;-71
2020/12/14 12:30:07;;;;;;;6.20;5.47;;;11.10;99.90;;;;;;5027955;28;20485;-70
2020/12/14 12:32:33;;;;;;;8.13;6.37;;;11.10;99.90;;;;;;5028709;28;20536;-70
2020/12/14 12:35:00;;;;;;;8.90;6.07;;;11.10;99.90;;;;;;5028514;28;20444;-70
2020/12/14 12:37:27;;;;;;;7.23;5.57;;;11.10;99.90;;;;;;5028596;28;20527;-70
2020/12/14 12:39:53;;;;;;;7.10;6.33;;;11.00;99.90;;;;;;5028251;28;20449;-71
2020/12/14 12:42:20;;;;;;;7.37;6.30;;;11.10;99.90;;;;;;5028006;28;20445;-70
2020/12/14 12:44:46;;;;;;;7.53;6.40;;;11.20;99.90;;;;;;5035688;28;20462;-71
2020/12/14 12:47:12;;;;;;;8.83;6.80;;;11.30;99.90;;;;;;5033171;28;20528;-70